createdAt,value
2022-10-17T00:00:02.541Z,58.95
2022-10-17T00:02:32.496Z,60.67
2022-10-17T00:05:00.002Z,56.72
2022-10-17T00:07:27.870Z,58.90
2022-10-17T00:09:55.664Z,57.78
2022-10-17T00:12:23.224Z,58.83
2022-10-17T00:14:50.957Z,55.50
2022-10-17T00:17:18.450Z,61.78
2022-10-17T00:19:46.086Z,61.28
2022-10-17T00:22:13.420Z,60.95
2022-10-17T00:24:40.898Z,62.97
2022-10-17T00:27:08.548Z,58.28
2022-10-17T00:29:36.253Z,62.30
2022-10-17T00:32:03.911Z,63.85
2022-10-17T00:34:31.473Z,67.22
2022-10-17T00:36:58.964Z,60.47
2022-10-17T00:39:26.492Z,63.67
2022-10-17T00:41:54.008Z,57.03
2022-10-17T00:44:30.299Z,59.00
2022-10-17T00:47:09.481Z,63.33
2022-10-17T00:49:38.445Z,56.35
2022-10-17T00:52:10.555Z,60.72
2022-10-17T00:54:39.859Z,56.47
2022-10-17T00:57:07.472Z,59.25
2022-10-17T00:59:36.327Z,61.83
2022-10-17T01:02:05.367Z,60.10
2022-10-17T01:04:32.964Z,60.67
2022-10-17T01:07:00.262Z,56.33
2022-10-17T01:09:27.956Z,58.63
2022-10-17T01:12:07.402Z,62.10
2022-10-17T01:14:45.934Z,62.75
2022-10-17T01:17:35.394Z,60.97
2022-10-17T01:20:21.311Z,63.13
2022-10-17T01:23:07.183Z,63.10
2022-10-17T01:25:37.911Z,58.75
2022-10-17T01:28:05.468Z,61.90
2022-10-17T01:30:51.720Z,57.47
2022-10-17T01:33:31.130Z,59.22
2022-10-17T01:36:04.744Z,58.95
2022-10-17T01:38:36.958Z,61.00
2022-10-17T01:41:14.627Z,62.20
2022-10-17T01:43:47.282Z,59.15
2022-10-17T01:46:47.256Z,60.07
2022-10-17T01:49:16.428Z,60.30
2022-10-17T01:51:50.147Z,60.40
2022-10-17T01:54:25.923Z,66.07
2022-10-17T01:56:59.401Z,58.92
2022-10-17T01:59:29.634Z,63.13
2022-10-17T02:01:58.145Z,60.80
2022-10-17T02:04:26.207Z,67.80
2022-10-17T02:06:53.780Z,67.68
2022-10-17T02:09:23.042Z,66.43
2022-10-17T02:12:03.627Z,61.67
2022-10-17T02:14:46.240Z,64.38
2022-10-17T02:17:13.915Z,64.45
2022-10-17T02:19:51.724Z,60.70
2022-10-17T02:22:31.393Z,58.30
2022-10-17T02:25:18.736Z,62.15
2022-10-17T02:27:54.207Z,62.72
2022-10-17T02:30:30.877Z,59.00
2022-10-17T02:33:01.536Z,60.80
2022-10-17T02:35:31.639Z,60.55
2022-10-17T02:38:00.253Z,61.15
2022-10-17T02:40:28.442Z,58.50
2022-10-17T02:42:58.686Z,62.00
2022-10-17T02:45:27.682Z,64.55
2022-10-17T02:48:01.037Z,57.83
2022-10-17T02:53:10.907Z,60.70
2022-10-17T02:55:41.471Z,63.45
2022-10-17T02:58:12.016Z,62.92
2022-10-17T03:00:40.244Z,60.00
2022-10-17T03:03:24.590Z,61.45
2022-10-17T03:05:52.487Z,60.42
2022-10-17T03:08:23.198Z,60.20
2022-10-17T03:10:50.885Z,63.05
2022-10-17T03:13:22.336Z,65.25
2022-10-17T03:15:50.802Z,71.35
2022-10-17T03:18:18.568Z,63.22
2022-10-17T03:20:48.535Z,60.75
2022-10-17T03:23:16.242Z,61.22
2022-10-17T03:25:43.845Z,61.55
2022-10-17T03:28:14.569Z,63.70
2022-10-17T03:30:42.204Z,63.00
2022-10-17T03:33:10.076Z,63.42
2022-10-17T03:35:38.902Z,63.28
2022-10-17T03:38:07.697Z,61.03
2022-10-17T03:40:35.349Z,61.00
2022-10-17T03:43:03.007Z,71.95
2022-10-17T03:45:30.930Z,65.53
2022-10-17T03:48:01.565Z,62.50
2022-10-17T03:50:30.369Z,63.38
2022-10-17T03:52:59.266Z,61.28
2022-10-17T03:55:27.004Z,61.10
2022-10-17T03:57:54.548Z,65.50
2022-10-17T04:00:23.704Z,61.33
2022-10-17T04:02:57.606Z,58.70
2022-10-17T04:05:26.557Z,62.40
2022-10-17T04:07:54.431Z,58.42
2022-10-17T04:10:30.303Z,58.80
2022-10-17T04:12:57.869Z,60.65
2022-10-17T04:15:25.589Z,63.95
2022-10-17T04:17:53.179Z,60.97
2022-10-17T04:20:20.705Z,58.80
2022-10-17T04:22:48.326Z,63.30
2022-10-17T04:25:15.858Z,65.57
2022-10-17T04:27:46.705Z,59.45
2022-10-17T04:30:14.870Z,59.63
2022-10-17T04:32:43.049Z,64.35
2022-10-17T04:35:18.852Z,62.38
2022-10-17T04:37:51.664Z,60.28
2022-10-17T04:40:21.003Z,59.47
2022-10-17T04:42:50.453Z,56.88
2022-10-17T04:45:21.160Z,60.03
2022-10-17T04:47:52.168Z,60.97
2022-10-17T04:50:19.682Z,58.50
2022-10-17T04:53:05.099Z,58.63
2022-10-17T04:55:36.975Z,64.88
2022-10-17T04:58:04.617Z,60.55
2022-10-17T05:00:32.983Z,59.60
2022-10-17T05:03:12.102Z,64.88
2022-10-17T05:05:43.057Z,65.05
2022-10-17T05:08:11.945Z,61.53
2022-10-17T05:10:41.026Z,61.60
2022-10-17T05:13:09.009Z,61.80
2022-10-17T05:15:37.679Z,61.05
2022-10-17T05:18:05.859Z,65.65
2022-10-17T05:20:33.847Z,63.22
2022-10-17T05:23:02.044Z,65.60
2022-10-17T05:25:35.003Z,63.00
2022-10-17T05:28:02.552Z,57.65
2022-10-17T05:30:35.106Z,61.28
2022-10-17T05:33:06.721Z,61.70
2022-10-17T05:35:34.844Z,61.88
2022-10-17T05:38:02.947Z,62.00
2022-10-17T05:40:33.664Z,60.55
2022-10-17T05:43:00.815Z,63.40
2022-10-17T05:45:28.455Z,71.50
2022-10-17T05:47:57.604Z,52.25
2022-10-17T05:50:26.071Z,59.60
2022-10-17T05:53:05.085Z,64.15
2022-10-17T05:55:43.225Z,53.13
2022-10-17T05:58:17.690Z,57.53
2022-10-17T06:00:53.313Z,54.70
2022-10-17T06:03:21.139Z,55.15
2022-10-17T06:05:48.809Z,53.97
2022-10-17T06:08:17.090Z,57.05
2022-10-17T06:10:47.464Z,54.75
2022-10-17T06:13:15.597Z,54.33
2022-10-17T06:15:43.258Z,61.88
2022-10-17T06:18:11.254Z,62.95
2022-10-17T06:20:43.855Z,62.00
2022-10-17T06:23:14.727Z,64.03
2022-10-17T06:25:53.947Z,64.22
2022-10-17T06:28:21.529Z,60.92
2022-10-17T06:30:49.072Z,59.67
2022-10-17T06:33:18.171Z,61.42
2022-10-17T06:35:50.734Z,65.07
2022-10-17T06:38:18.889Z,65.93
2022-10-17T06:40:46.695Z,62.05
2022-10-17T06:43:14.521Z,61.42
2022-10-17T06:46:15.496Z,58.92
2022-10-17T06:48:54.487Z,56.72
2022-10-17T06:51:41.432Z,64.25
2022-10-17T06:54:11.081Z,61.15
2022-10-17T06:56:57.339Z,65.78
2022-10-17T06:59:40.617Z,58.90
2022-10-17T07:02:11.917Z,56.17
2022-10-17T07:04:39.520Z,64.82
2022-10-17T07:07:07.211Z,69.63
2022-10-17T07:09:35.732Z,71.70
2022-10-17T07:12:03.628Z,69.32
2022-10-17T07:14:32.358Z,63.83
2022-10-17T07:17:00.762Z,65.60
2022-10-17T07:19:30.308Z,65.85
2022-10-17T07:21:58.074Z,66.55
2022-10-17T07:24:26.240Z,66.47
2022-10-17T07:26:59.184Z,56.45
2022-10-17T07:29:26.901Z,61.50
2022-10-17T07:32:00.580Z,68.78
2022-10-17T07:34:31.826Z,61.35
2022-10-17T07:37:00.777Z,70.25
2022-10-17T07:39:29.263Z,67.53
2022-10-17T07:41:56.599Z,63.95
2022-10-17T07:44:24.991Z,70.07
2022-10-17T07:46:54.542Z,64.60
2022-10-17T07:49:22.712Z,67.05
2022-10-17T07:51:50.348Z,60.50
2022-10-17T07:54:18.090Z,67.65
2022-10-17T07:56:50.456Z,65.28
2022-10-17T07:59:18.932Z,63.88
2022-10-17T08:01:46.556Z,70.70
2022-10-17T08:04:14.183Z,67.15
2022-10-17T08:06:42.113Z,64.85
2022-10-17T08:09:09.515Z,65.88
2022-10-17T08:11:37.524Z,64.32
2022-10-17T08:14:05.703Z,63.05
2022-10-17T08:16:33.706Z,61.33
2022-10-17T08:19:01.482Z,67.93
2022-10-17T08:21:28.819Z,71.25
2022-10-17T08:23:56.961Z,65.45
2022-10-17T08:26:24.731Z,63.33
2022-10-17T08:28:52.580Z,67.38
2022-10-17T08:31:21.468Z,63.17
2022-10-17T08:33:49.636Z,70.85
2022-10-17T08:36:19.163Z,71.25
2022-10-17T08:38:50.345Z,72.45
2022-10-17T08:43:50.535Z,66.15
2022-10-17T08:46:18.683Z,69.93
2022-10-17T08:48:47.766Z,70.25
2022-10-17T08:51:17.840Z,67.82
2022-10-17T08:53:49.380Z,62.60
2022-10-17T08:56:43.960Z,68.72
2022-10-17T08:59:14.799Z,68.53
2022-10-17T09:01:46.365Z,68.97
2022-10-17T09:04:29.078Z,60.38
2022-10-17T09:07:10.145Z,61.38
2022-10-17T09:09:37.978Z,64.65
2022-10-17T09:12:05.783Z,74.78
2022-10-17T09:14:33.623Z,67.25
2022-10-17T09:17:01.221Z,66.88
2022-10-17T09:19:32.129Z,65.85
2022-10-17T09:22:19.607Z,68.32
2022-10-17T09:24:53.937Z,67.28
2022-10-17T09:27:24.378Z,82.97
2022-10-17T09:29:57.802Z,66.65
2022-10-17T09:32:25.939Z,69.75
2022-10-17T09:34:54.330Z,69.28
2022-10-17T09:37:25.625Z,71.13
2022-10-17T09:39:53.039Z,68.90
2022-10-17T09:42:22.650Z,70.25
2022-10-17T09:44:50.317Z,69.65
2022-10-17T09:47:20.788Z,68.95
2022-10-17T09:49:49.363Z,71.25
2022-10-17T09:52:19.047Z,67.45
2022-10-17T09:54:46.650Z,74.07
2022-10-17T09:57:15.242Z,69.40
2022-10-17T09:59:45.252Z,69.20
2022-10-17T10:02:12.917Z,66.00
2022-10-17T10:05:03.628Z,70.30
2022-10-17T10:07:36.492Z,66.10
2022-10-17T10:10:06.820Z,66.43
2022-10-17T10:12:38.690Z,67.40
2022-10-17T10:15:31.062Z,65.88
2022-10-17T10:17:58.597Z,64.47
2022-10-17T10:20:29.440Z,72.53
2022-10-17T10:23:12.616Z,65.85
2022-10-17T10:25:50.227Z,68.45
2022-10-17T10:28:18.429Z,64.85
2022-10-17T10:30:48.239Z,64.07
2022-10-17T10:33:16.114Z,65.10
2022-10-17T10:35:52.439Z,66.95
2022-10-17T10:38:21.505Z,67.38
2022-10-17T10:40:51.261Z,58.10
2022-10-17T10:43:23.412Z,63.03
2022-10-17T10:45:53.936Z,68.13
2022-10-17T10:48:25.649Z,60.05
2022-10-17T10:50:56.617Z,53.92
2022-10-17T10:53:47.420Z,56.58
2022-10-17T10:56:18.227Z,56.25
2022-10-17T10:59:05.093Z,54.83
2022-10-17T11:02:05.536Z,52.20
2022-10-17T11:04:47.748Z,57.63
2022-10-17T11:07:33.800Z,55.45
2022-10-17T11:10:33.748Z,54.50
2022-10-17T11:13:06.803Z,53.88
2022-10-17T11:15:34.604Z,58.13
2022-10-17T11:18:28.417Z,51.38
2022-10-17T11:21:06.420Z,61.08
2022-10-17T11:23:56.404Z,51.13
2022-10-17T11:26:27.152Z,48.10
2022-10-17T11:28:55.379Z,53.05
2022-10-17T11:31:27.942Z,55.90
2022-10-17T11:34:01.420Z,49.15
2022-10-17T11:36:37.500Z,46.88
2022-10-17T11:39:09.152Z,53.17
2022-10-17T11:41:39.856Z,45.50
2022-10-17T11:44:26.304Z,50.88
2022-10-17T11:47:05.518Z,48.25
2022-10-17T11:49:40.252Z,49.30
2022-10-17T11:52:09.514Z,54.65
2022-10-17T11:54:43.369Z,51.42
2022-10-17T11:57:16.943Z,50.63
2022-10-17T11:59:53.731Z,46.40
2022-10-17T12:02:23.712Z,53.15
2022-10-17T12:05:10.574Z,57.35
2022-10-17T12:10:33.823Z,49.05
2022-10-17T12:13:19.677Z,51.53
2022-10-17T12:15:47.429Z,58.22
2022-10-17T12:18:18.081Z,49.22
2022-10-17T12:20:56.313Z,58.45
2022-10-17T12:23:27.171Z,52.17
2022-10-17T12:25:57.014Z,54.55
2022-10-17T12:28:27.493Z,54.30
2022-10-17T12:31:03.458Z,48.03
2022-10-17T12:33:35.703Z,54.00
2022-10-17T12:36:21.655Z,54.22
2022-10-17T12:38:49.983Z,52.47
2022-10-17T12:41:37.692Z,51.45
2022-10-17T12:44:14.912Z,50.53
2022-10-17T12:46:45.678Z,50.80
2022-10-17T12:49:24.899Z,47.88
2022-10-17T12:52:15.551Z,52.17
2022-10-17T12:55:00.234Z,55.20
2022-10-17T12:57:38.989Z,56.70
2022-10-17T13:00:15.183Z,51.90
2022-10-17T13:02:42.856Z,55.47
2022-10-17T13:05:27.541Z,52.92
2022-10-17T13:07:55.612Z,45.88
2022-10-17T13:10:28.482Z,52.28
2022-10-17T13:13:08.243Z,49.75
2022-10-17T13:15:39.496Z,45.08
2022-10-17T13:18:17.441Z,48.80
2022-10-17T13:20:54.509Z,54.38
2022-10-17T13:23:22.862Z,53.70
2022-10-17T13:26:03.346Z,52.22
2022-10-17T13:28:32.412Z,52.65
2022-10-17T13:31:03.082Z,51.35
2022-10-17T13:33:39.224Z,56.53
2022-10-17T13:36:16.324Z,58.83
2022-10-17T13:38:43.862Z,52.47
2022-10-17T13:41:34.419Z,52.08
2022-10-17T13:44:00.801Z,51.38
2022-10-17T13:46:37.967Z,54.00
2022-10-17T13:49:22.186Z,51.42
2022-10-17T13:51:52.986Z,49.10
2022-10-17T13:54:40.784Z,52.20
2022-10-17T13:57:20.681Z,55.42
2022-10-17T13:59:50.757Z,50.55
2022-10-17T14:02:23.335Z,54.80
2022-10-17T14:05:16.596Z,46.87
2022-10-17T14:08:10.644Z,51.10
2022-10-17T14:10:40.828Z,51.88
2022-10-17T14:13:17.997Z,52.00
2022-10-17T14:15:45.986Z,45.50
2022-10-17T14:18:40.688Z,46.50
2022-10-17T14:21:34.307Z,47.38
2022-10-17T14:24:14.831Z,41.90
2022-10-17T14:26:50.169Z,48.25
2022-10-17T14:29:20.372Z,43.72
2022-10-17T14:31:51.143Z,45.20
2022-10-17T14:34:28.105Z,50.03
2022-10-17T14:36:56.222Z,50.13
2022-10-17T14:39:24.617Z,47.35
2022-10-17T14:41:52.391Z,48.30
2022-10-17T14:44:22.022Z,46.55
2022-10-17T14:46:52.061Z,49.33
2022-10-17T14:49:26.148Z,49.45
2022-10-17T14:52:14.899Z,48.50
2022-10-17T14:54:46.861Z,47.10
2022-10-17T14:57:17.061Z,47.45
2022-10-17T14:59:59.926Z,51.90
2022-10-17T15:02:29.134Z,43.83
2022-10-17T15:04:57.189Z,49.42
2022-10-17T15:07:24.932Z,44.75
2022-10-17T15:09:53.684Z,43.38
2022-10-17T15:12:23.067Z,43.60
2022-10-17T15:14:52.043Z,43.42
2022-10-17T15:17:26.702Z,42.30
2022-10-17T15:19:55.046Z,45.85
2022-10-17T15:25:15.385Z,40.22
2022-10-17T15:27:43.557Z,39.45
2022-10-17T15:30:20.747Z,37.50
2022-10-17T15:32:52.139Z,36.35
2022-10-17T15:35:19.819Z,34.15
2022-10-17T15:37:48.044Z,39.28
2022-10-17T15:40:25.716Z,39.38
2022-10-17T15:42:53.387Z,40.72
2022-10-17T15:45:22.613Z,36.15
2022-10-17T15:47:54.250Z,37.70
2022-10-17T15:50:22.089Z,38.58
2022-10-17T15:52:53.101Z,37.90
2022-10-17T15:55:21.111Z,38.00
2022-10-17T15:57:49.141Z,37.40
2022-10-17T16:00:19.795Z,32.42
2022-10-17T16:02:48.077Z,35.50
2022-10-17T16:05:18.044Z,37.13
2022-10-17T16:07:46.947Z,35.65
2022-10-17T16:10:15.480Z,39.97
2022-10-17T16:12:43.633Z,34.05
2022-10-17T16:15:15.448Z,37.25
2022-10-17T16:17:46.560Z,33.23
2022-10-17T16:20:14.260Z,34.90
2022-10-17T16:22:43.223Z,32.00
2022-10-17T16:25:20.210Z,34.17
2022-10-17T16:27:48.695Z,30.13
2022-10-17T16:30:16.489Z,33.15
2022-10-17T16:32:44.314Z,35.60
2022-10-17T16:35:16.433Z,33.65
2022-10-17T16:37:44.296Z,31.38
2022-10-17T16:40:12.281Z,29.73
2022-10-17T16:42:40.150Z,30.17
2022-10-17T16:45:08.251Z,43.13
2022-10-17T16:47:35.700Z,32.42
2022-10-17T16:50:03.481Z,31.58
2022-10-17T16:52:31.311Z,39.28
2022-10-17T16:54:59.085Z,36.53
2022-10-17T16:57:26.620Z,32.75
2022-10-17T16:59:54.409Z,32.33
2022-10-17T17:02:21.953Z,34.33
2022-10-17T17:04:49.560Z,35.72
2022-10-17T17:07:19.590Z,35.45
2022-10-17T17:09:48.358Z,31.35
2022-10-17T17:12:16.201Z,38.25
2022-10-17T17:14:43.805Z,30.90
2022-10-17T17:17:19.536Z,33.17
2022-10-17T17:20:01.440Z,33.17
2022-10-17T17:22:29.375Z,36.17
2022-10-17T17:24:57.359Z,33.38
2022-10-17T17:27:27.528Z,29.23
2022-10-17T17:29:55.962Z,34.67
2022-10-17T17:32:23.539Z,40.50
2022-10-17T17:34:50.980Z,36.88
2022-10-17T17:37:18.914Z,35.60
2022-10-17T17:39:46.726Z,40.03
2022-10-17T17:42:16.539Z,39.67
2022-10-17T17:44:44.289Z,37.25
2022-10-17T17:47:12.084Z,44.20
2022-10-17T17:49:39.916Z,41.20
2022-10-17T17:52:07.442Z,38.90
2022-10-17T17:54:38.503Z,40.72
2022-10-17T17:59:35.733Z,40.00
2022-10-17T18:02:05.407Z,45.75
2022-10-17T18:04:33.187Z,44.13
2022-10-17T18:07:01.472Z,42.65
2022-10-17T18:09:29.168Z,47.13
2022-10-17T18:11:56.791Z,47.72
2022-10-17T18:14:24.310Z,45.05
2022-10-17T18:16:52.486Z,42.88
2022-10-17T18:19:20.531Z,42.08
2022-10-17T18:21:48.905Z,45.08
2022-10-17T18:24:16.776Z,40.92
2022-10-17T18:26:44.417Z,43.55
2022-10-17T18:29:13.153Z,44.30
2022-10-17T18:31:40.889Z,48.45
2022-10-17T18:34:08.236Z,47.55
2022-10-17T18:36:35.921Z,50.67
2022-10-17T18:39:04.101Z,56.05
2022-10-17T18:41:32.280Z,43.90
2022-10-17T18:44:00.394Z,47.90
2022-10-17T18:46:28.858Z,48.15
2022-10-17T18:48:56.545Z,52.83
2022-10-17T18:51:25.495Z,46.47
2022-10-17T18:53:54.745Z,48.05
2022-10-17T18:56:22.654Z,47.30
2022-10-17T18:58:50.278Z,45.27
2022-10-17T19:01:19.822Z,53.10
2022-10-17T19:03:49.108Z,51.08
2022-10-17T19:06:19.189Z,51.10
2022-10-17T19:08:47.898Z,48.65
2022-10-17T19:11:19.139Z,48.58
2022-10-17T19:13:47.116Z,51.22
2022-10-17T19:16:15.952Z,47.58
2022-10-17T19:18:43.961Z,44.97
2022-10-17T19:21:11.649Z,52.72
2022-10-17T19:23:40.041Z,48.85
2022-10-17T19:26:10.180Z,47.60
2022-10-17T19:28:39.307Z,51.13
2022-10-17T19:31:07.107Z,50.25
2022-10-17T19:33:35.131Z,57.05
2022-10-17T19:36:04.429Z,54.30
2022-10-17T19:38:32.089Z,55.47
2022-10-17T19:43:33.050Z,51.42
2022-10-17T19:46:01.864Z,54.15
2022-10-17T19:48:32.379Z,53.38
2022-10-17T19:51:02.544Z,51.08
2022-10-17T19:53:30.384Z,58.85
2022-10-17T19:55:58.424Z,47.22
2022-10-17T19:58:26.723Z,55.83
2022-10-17T20:00:56.870Z,49.50
2022-10-17T20:03:25.473Z,54.50
2022-10-17T20:05:53.012Z,51.00
2022-10-17T20:08:21.004Z,55.65
2022-10-17T20:10:48.668Z,53.50
2022-10-17T20:13:16.736Z,54.50
2022-10-17T20:15:53.942Z,52.47
2022-10-17T20:18:21.628Z,48.72
2022-10-17T20:20:51.705Z,51.50
2022-10-17T20:23:19.673Z,51.63
2022-10-17T20:25:47.315Z,55.58
2022-10-17T20:28:15.425Z,51.88
2022-10-17T20:30:44.040Z,61.92
2022-10-17T20:33:14.349Z,54.10
2022-10-17T20:35:42.935Z,51.55
2022-10-17T20:38:10.934Z,55.03
2022-10-17T20:40:38.647Z,43.70
2022-10-17T20:43:07.896Z,46.67
2022-10-17T20:45:51.306Z,55.70
2022-10-17T20:48:20.261Z,54.75
2022-10-17T20:50:48.959Z,58.25
2022-10-17T20:53:35.942Z,46.72
2022-10-17T20:56:08.533Z,53.13
2022-10-17T20:58:36.403Z,55.13
2022-10-17T21:01:07.716Z,51.67
2022-10-17T21:03:37.902Z,57.22
2022-10-17T21:06:08.562Z,61.45
2022-10-17T21:08:36.161Z,54.90
2022-10-17T21:11:08.152Z,58.80
2022-10-17T21:13:36.070Z,54.70
2022-10-17T21:16:22.005Z,56.83
2022-10-17T21:18:49.574Z,57.05
2022-10-17T21:21:18.689Z,55.95
2022-10-17T21:23:47.571Z,53.65
2022-10-17T21:26:15.697Z,60.35
2022-10-17T21:28:44.407Z,55.75
2022-10-17T21:31:19.549Z,57.78
2022-10-17T21:33:48.621Z,53.40
2022-10-17T21:36:17.248Z,58.05
2022-10-17T21:38:45.927Z,59.72
2022-10-17T21:41:14.261Z,51.72
2022-10-17T21:43:42.440Z,58.80
2022-10-17T21:46:12.265Z,56.35
2022-10-17T21:48:39.980Z,54.92
2022-10-17T21:51:10.262Z,56.05
2022-10-17T21:53:38.228Z,51.78
2022-10-17T21:56:07.564Z,53.00
2022-10-17T21:58:35.856Z,52.17
2022-10-17T22:01:13.645Z,48.88
2022-10-17T22:03:46.679Z,51.30
2022-10-17T22:09:08.520Z,49.67
2022-10-17T22:11:36.435Z,49.60
2022-10-17T22:14:07.438Z,48.92
2022-10-17T22:16:35.255Z,49.70
2022-10-17T22:19:06.223Z,50.25
2022-10-17T22:21:35.748Z,48.30
2022-10-17T22:24:06.581Z,47.13
2022-10-17T22:26:35.785Z,46.45
2022-10-17T22:29:04.691Z,43.75
2022-10-17T22:31:32.410Z,44.42
2022-10-17T22:33:59.931Z,43.95
2022-10-17T22:36:27.599Z,44.38
2022-10-17T22:38:55.268Z,39.97
2022-10-17T22:41:22.916Z,42.90
2022-10-17T22:43:51.165Z,41.28
2022-10-17T22:46:19.509Z,42.53
2022-10-17T22:48:47.070Z,39.63
2022-10-17T22:51:15.249Z,44.33
2022-10-17T22:53:43.022Z,40.70
2022-10-17T22:56:14.930Z,47.38
2022-10-17T22:58:42.552Z,51.78
2022-10-17T23:01:13.029Z,44.60
2022-10-17T23:03:41.169Z,41.50
2022-10-17T23:06:09.285Z,48.42
2022-10-17T23:08:36.755Z,49.83
2022-10-17T23:11:04.342Z,43.72
2022-10-17T23:13:32.093Z,42.28
2022-10-17T23:16:00.201Z,39.83
2022-10-17T23:18:28.131Z,43.22
2022-10-17T23:20:56.387Z,43.65
2022-10-17T23:23:24.150Z,42.65
2022-10-17T23:25:52.309Z,42.28
2022-10-17T23:28:20.170Z,45.03
2022-10-17T23:30:47.983Z,49.35
2022-10-17T23:33:15.957Z,41.33
2022-10-17T23:35:43.578Z,42.90
2022-10-17T23:38:11.174Z,45.22
2022-10-17T23:40:38.625Z,37.63
2022-10-17T23:43:06.298Z,44.58
2022-10-17T23:45:36.824Z,40.35
2022-10-17T23:48:05.495Z,40.88
2022-10-17T23:50:33.564Z,40.85
2022-10-17T23:53:01.144Z,38.75
2022-10-17T23:55:29.430Z,39.80
2022-10-17T23:57:57.179Z,36.25
